Glenavy, United Kingdom
Current Conditions -  °F | °C
As of 8:50 AM on Wednesday 28 Jan 2015 (Local Time) from EGAA Reporting Station
Scattered Clouds Scattered Clouds  
Wind Chill: 25°   Ceiling: Unl
Heat Index: 36°   Visibility: 6mi
Dew Point: 32°   Wind: 20mph
Humidity: 87%   Direction: 270°W
Pressure: 29.44"   Gusts: NA
Location:  54.58°N, 6.22°W
Report Text: EGAA 280850Z 27017KT 9999 SCT008CB 02/M00 Q0997
Loading
Personal Weather Stations






























Interactive Weather Map New forecast layout! Learn more

10-Day Weather Forecast

Advertisements
Track Severe Weather on mobile